Terminal Aerodrome Forecast
Issued by NWS Pocatello, ID

Home | Current Version | Previous Version | Text Only | Print | Product List | Glossary On
Versions: 1 2 3 4 5 6 7 8 9 10 11 12 13 14
000
FTUS45 KPIH 230500
TAFIDA
TAF
KIDA 230520Z 2306/2406 VRB06KT P6SM FEW250
     FM231600 22015KT P6SM BKN180
     FM231900 23017G27KT P6SM FEW110 BKN180
     FM240300 20011KT P6SM VCSH SCT110 BKN150=

USA.gov is the U.S. government's official web portal to all federal, state and local government web resources and services.